Friday, April 20, 2018, 6:37 AM EDT
Back to Local

KDOV, Dover Air Force Base

Location: Dover, DE, United States Lat: 39.133
Local Time: 6:37 AM EDT (10:37 GMT) Lon: -75.467
Time Zone: US/Eastern Elev: 29 ft

Show me the last for .
Show Decoded

2018-04-20 05:56 METAR KDOV 200956Z AUTO 30011KT 10SM FEW060 04/M05 A3020 RMK AO2 SLP230
                 T00361051 $ =
2018-04-20 04:56 METAR KDOV 200856Z AUTO 29011KT 10SM OVC048 04/M04 A3017 RMK AO2 SLP220
                 T00441043 52017 $ =
2018-04-20 03:56 METAR KDOV 200756Z AUTO 28009KT 10SM BKN060 04/M04 A3015 RMK AO2 SLP213
                 T00401045 $ =
2018-04-20 02:56 METAR KDOV 200656Z AUTO 27007KT 10SM FEW055 04/M04 A3014 RMK AO2 SLP210
                 T00391043 $ =
2018-04-20 01:56 METAR KDOV 200556Z AUTO 28006KT 10SM CLR 04/M04 A3012 RMK AO2 SLP203 T00411044
                 10075 20038 51003 $ =
2018-04-20 00:56 METAR KDOV 200456Z AUTO 26007KT 10SM FEW060 04/M03 A3012 RMK AO2 SLP203
                 T00391034 401350039 $ =
2018-04-19 23:56 METAR KDOV 200356Z AUTO 28006KT 10SM OVC060 05/M04 A3011 RMK AO2 SLP200
                 T00531040 $ =
2018-04-19 22:56 METAR KDOV 200256Z AUTO 30012KT 10SM SCT060 05/M04 A3011 RMK AO2 SLP200
                 T00531038 51036 $ =
2018-04-19 21:56 METAR KDOV 200156Z AUTO 30014G19KT 10SM CLR 06/M04 A3010 RMK AO2 PK WND 32027/30
                 SLP196 T00551044 $ =
2018-04-19 20:56 METAR KDOV 200056Z AUTO 30015G23KT 10SM CLR 06/M03 A3006 RMK AO2 PK WND 28029/09
                 PRESRR SLP183 T00611033 $ =
2018-04-19 19:56 METAR KDOV 192356Z AUTO 29019G28KT 10SM BKN055 07/M02 A3000 RMK AO2 PK WND
                 30029/2257 SLP162 60002 T00741023 10102 20074 52042 $ =
2018-04-19 18:56 METAR KDOV 192256Z AUTO 29016G23KT 10SM OVC046 08/M01 A2996 RMK AO2 PK WND
                 29028/38 SLP149 T00791014 $ =
2018-04-19 17:56 METAR KDOV 192156Z AUTO 30014G21KT 10SM SCT045 OVC055 09/01 A2992 RMK AO2 PK WND
                 30029/13 SLP135 T00860013 $ =
2018-04-19 16:56 METAR KDOV 192056Z AUTO 30017G27KT 10SM BKN036 OVC046 09/03 A2988 RMK AO2 PK WND
                 31027/49 SLP122 60002 T00870031 52030 $ =
2018-04-19 15:56 METAR KDOV 191956Z AUTO 30018KT 10SM FEW021 FEW026 OVC049 10/06 A2985 RMK AO2 PK
                 WND 30027/07 RAE38 SLP111 P0001 T01010062 $ =
2018-04-19 15:38 METAR KDOV 191938Z AUTO 31012G16KT 10SM FEW021 SCT027 BKN041 OVC049 09/06 A2984
                 RMK AO2 RAE38 SLP108 $ =
2018-04-19 15:11 METAR KDOV 191911Z AUTO 29018G24KT 9SM -RA SCT022 SCT027 BKN039 OVC075 09/06
                 A2983 RMK AO2 SLP105 $ =
2018-04-19 15:06 METAR KDOV 191906Z AUTO 29017G24KT 10SM -RA BKN024 BKN038 OVC075 09/06 A2983 RMK
                 AO2 CIG 024V075 SLP105 $ =
2018-04-19 14:56 METAR KDOV 191856Z AUTO 29011G22KT 10SM -RA FEW025 SCT041 OVC075 10/06 A2982 RMK
                 AO2 SLP101 P0001 T00950059 $ =
2018-04-19 13:56 METAR KDOV 191756Z AUTO 29018G33KT 10SM -RA FEW023 SCT030 OVC038 10/06 A2979 RMK
                 AO2 PK WND 28037/42 DZE02RAB19 PRESRR SLP091 P0000 60001 T01010062 10135 20101
                 53020 $ =
2018-04-19 13:43 METAR KDOV 191743Z AUTO 29026G37KT 9SM -RA FEW015 SCT028 BKN035 OVC045 12/08
                 A2976 RMK AO2 WSHFT 30 DZE02RAB19 SLP081 $ =
2018-04-19 13:19 METAR KDOV 191719Z AUTO 25008KT 10SM -RA SCT038 BKN048 OVC060 12/08 A2974 RMK
                 AO2 DZE02RAB19 SLP074 $ =
2018-04-19 13:02 METAR KDOV 191702Z AUTO 22010KT 10SM SCT038 BKN047 OVC080 13/08 A2973 RMK AO2
                 DZE02 SLP071 $ =
2018-04-19 12:56 METAR KDOV 191656Z AUTO 22009KT 10SM -DZ SCT038 BKN048 BKN065 OVC075 13/08 A2973
                 RMK AO2 DZB52 SLP071 P0000 T01250076 $ =
2018-04-19 12:52 METAR KDOV 191652Z AUTO 24007KT 10SM -DZ FEW038 BKN048 BKN065 OVC075 13/07 A2972
                 RMK AO2 DZB52 SLP067 $ =
2018-04-19 11:14 METAR KDOV 191514Z AUTO 25007KT 10SM SCT043 BKN065 BKN090 10/07 A2974 RMK AO2
                 RAE09DZB09E14 SLP074 $ =
2018-04-19 10:56 METAR KDOV 191456Z AUTO 22008KT 10SM -RA BKN045 OVC060 10/07 A2973 RMK AO2
                 RAE02DZB02E03RAB12E47RAB49 SLP071 P0000 60000 T01020069 52038 $ =
2018-04-19 10:49 METAR KDOV 191449Z AUTO 23007KT 10SM -RA SCT047 OVC060 10/07 A2973 RMK AO2
                 RAE02DZB02E03RAB12E47RAB49 SLP071 $ =
2018-04-19 10:47 METAR KDOV 191447Z AUTO 24006KT 10SM SCT047 OVC060 10/07 A2973 RMK AO2
                 RAE02DZB02E03RAB12E47 SLP071 $ =
2018-04-19 10:12 METAR KDOV 191412Z AUTO 25005KT 10SM -RA SCT050 BKN065 OVC090 11/07 A2971 RMK
                 AO2 RAE02DZB02E03RAB12 SLP064 $ =
2018-04-19 10:03 METAR KDOV 191403Z AUTO 21006KT 10SM BKN055 BKN070 OVC090 11/06 A2970 RMK AO2
                 RAE02DZB02E03 SLP061 $ =
2018-04-19 09:56 METAR KDOV 191356Z AUTO 21004KT 10SM -RA FEW039 BKN055 OVC090 11/07 A2969 RMK
                 AO2 RAB06 SLP057 P0000 T01080067 $ =
2018-04-19 09:06 METAR KDOV 191306Z AUTO 00000KT 10SM -RA FEW050 BKN100 11/05 A2967 RMK AO2 RAB06
                 SLP051 $ =
2018-04-19 08:56 METAR KDOV 191256Z AUTO 00000KT 10SM OVC100 11/05 A2966 RMK AO2 SLP047 T01090050
                 $ =
2018-04-19 07:56 METAR KDOV 191156Z AUTO 08008KT 10SM BKN140 11/05 A2962 RMK AO2 SLP034 T01120053
                 10112 20069 58001 $ =
2018-04-19 06:56 METAR KDOV 191056Z AUTO 36014KT 10SM OVC033 10/05 A2967 RMK AO2 SLP051 T00960046
                 $ =

Support USWX by starting your Amazon purchase here.